createdAt,value
2023-02-28T00:01:33.492Z,91.30
2023-02-28T00:04:05.475Z,91.40
2023-02-28T00:06:37.323Z,91.60
2023-02-28T00:09:09.209Z,91.50
2023-02-28T00:11:41.110Z,91.50
2023-02-28T00:14:12.928Z,91.40
2023-02-28T00:16:44.801Z,91.40
2023-02-28T00:19:16.828Z,91.50
2023-02-28T00:21:48.763Z,91.60
2023-02-28T00:24:20.621Z,91.60
2023-02-28T00:26:52.472Z,91.60
2023-02-28T00:29:24.449Z,91.60
2023-02-28T00:31:56.339Z,91.40
2023-02-28T00:34:28.329Z,91.30
2023-02-28T00:37:00.189Z,91.30
2023-02-28T00:39:32.058Z,91.00
2023-02-28T00:42:05.085Z,91.10
2023-02-28T00:44:37.147Z,91.40
2023-02-28T00:47:09.050Z,91.20
2023-02-28T00:49:41.137Z,91.10
2023-02-28T00:52:15.275Z,91.40
2023-02-28T00:54:47.177Z,91.20
2023-02-28T00:57:20.267Z,91.20
2023-02-28T00:59:52.261Z,91.20
2023-02-28T01:02:24.480Z,91.00
2023-02-28T01:04:58.262Z,91.20
2023-02-28T01:07:30.184Z,91.20
2023-02-28T01:10:02.096Z,90.90
2023-02-28T01:12:34.100Z,90.90
2023-02-28T01:15:06.707Z,91.00
2023-02-28T01:17:38.624Z,90.90
2023-02-28T01:20:11.286Z,91.00
2023-02-28T01:22:43.333Z,91.00
2023-02-28T01:25:15.365Z,91.20
2023-02-28T01:27:47.296Z,91.10
2023-02-28T01:30:19.246Z,90.70
2023-02-28T01:32:54.524Z,90.90
2023-02-28T01:35:26.416Z,91.00
2023-02-28T01:38:06.827Z,91.20
2023-02-28T01:40:44.350Z,91.10
2023-02-28T01:43:28.899Z,90.90
2023-02-28T01:46:00.865Z,91.10
2023-02-28T01:48:36.975Z,91.20
2023-02-28T01:51:15.552Z,91.00
2023-02-28T01:53:52.413Z,91.00
2023-02-28T01:56:29.352Z,91.00
2023-02-28T01:59:01.347Z,90.90
2023-02-28T02:01:33.687Z,91.40
2023-02-28T02:04:06.896Z,91.10
2023-02-28T02:06:43.807Z,91.20
2023-02-28T02:09:15.899Z,91.10
2023-02-28T02:11:48.194Z,91.20
2023-02-28T02:14:32.075Z,91.20
2023-02-28T02:17:22.858Z,91.00
2023-02-28T02:20:04.963Z,91.00
2023-02-28T02:23:14.411Z,91.10
2023-02-28T02:26:06.899Z,91.20
2023-02-28T02:29:07.681Z,91.00
2023-02-28T02:32:15.896Z,91.20
2023-02-28T02:34:59.568Z,91.30
2023-02-28T02:37:39.881Z,91.40
2023-02-28T02:40:20.757Z,91.20
2023-02-28T02:42:58.005Z,91.00
2023-02-28T02:45:55.657Z,91.00
2023-02-28T02:48:32.929Z,91.00
2023-02-28T02:51:14.018Z,91.00
2023-02-28T02:53:52.479Z,90.80
2023-02-28T02:56:30.024Z,90.90
2023-02-28T02:59:05.053Z,90.90
2023-02-28T03:01:38.893Z,90.90
2023-02-28T03:04:17.142Z,90.80
2023-02-28T03:06:51.124Z,90.90
2023-02-28T03:09:23.920Z,90.90
2023-02-28T03:11:57.753Z,90.90
2023-02-28T03:14:47.809Z,90.90
2023-02-28T03:17:25.657Z,90.90
2023-02-28T03:20:18.101Z,90.80
2023-02-28T03:23:10.917Z,90.70
2023-02-28T03:25:46.153Z,90.90
2023-02-28T03:28:29.324Z,90.90
2023-02-28T03:31:31.580Z,90.60
2023-02-28T03:34:15.410Z,90.60
2023-02-28T03:36:54.741Z,90.70
2023-02-28T03:39:37.750Z,90.80
2023-02-28T03:42:17.247Z,91.00
2023-02-28T03:44:54.809Z,90.70
2023-02-28T03:47:44.861Z,90.80
2023-02-28T03:50:33.149Z,90.90
2023-02-28T03:53:26.579Z,90.80
2023-02-28T03:56:19.384Z,90.90
2023-02-28T03:59:06.099Z,91.00
2023-02-28T04:01:44.833Z,91.10
2023-02-28T04:04:18.072Z,90.90
2023-02-28T04:06:52.481Z,91.00
2023-02-28T04:09:24.634Z,91.00
2023-02-28T04:11:59.627Z,91.00
2023-02-28T04:14:31.519Z,91.00
2023-02-28T04:17:03.396Z,90.90
2023-02-28T04:19:35.298Z,91.10
2023-02-28T04:22:08.513Z,91.20
2023-02-28T04:24:42.516Z,91.10
2023-02-28T04:27:16.808Z,91.10
2023-02-28T04:29:48.687Z,91.20
2023-02-28T04:32:20.780Z,91.20
2023-02-28T04:34:52.846Z,91.00
2023-02-28T04:37:28.850Z,91.30
2023-02-28T04:40:00.697Z,91.40
2023-02-28T04:42:36.552Z,91.50
2023-02-28T04:45:11.244Z,91.20
2023-02-28T04:47:43.101Z,91.20
2023-02-28T04:50:15.086Z,91.30
2023-02-28T04:52:46.982Z,91.20
2023-02-28T04:55:18.838Z,91.30
2023-02-28T04:57:50.873Z,91.50
2023-02-28T05:00:22.822Z,91.40
2023-02-28T05:02:54.762Z,91.70
2023-02-28T05:05:26.621Z,92.00
2023-02-28T05:07:58.564Z,92.90
2023-02-28T05:10:30.797Z,92.20
2023-02-28T05:13:02.677Z,92.30
2023-02-28T05:15:35.734Z,92.10
2023-02-28T05:18:09.579Z,92.10
2023-02-28T05:20:41.377Z,92.40
2023-02-28T05:23:14.767Z,92.50
2023-02-28T05:25:46.625Z,92.50
2023-02-28T05:28:18.501Z,92.30
2023-02-28T05:30:50.625Z,92.30
2023-02-28T05:33:22.597Z,92.30
2023-02-28T05:35:54.499Z,92.00
2023-02-28T05:38:26.413Z,92.00
2023-02-28T05:40:58.371Z,92.20
2023-02-28T05:43:30.265Z,92.10
2023-02-28T05:46:10.828Z,91.90
2023-02-28T05:48:46.506Z,92.00
2023-02-28T05:51:18.770Z,91.90
2023-02-28T05:53:50.696Z,91.90
2023-02-28T05:56:22.596Z,91.80
2023-02-28T05:58:54.567Z,91.90
2023-02-28T06:01:32.263Z,92.20
2023-02-28T06:04:05.685Z,91.90
2023-02-28T06:06:38.109Z,92.90
2023-02-28T06:09:09.909Z,93.30
2023-02-28T06:11:42.527Z,93.70
2023-02-28T06:14:17.765Z,93.90
2023-02-28T06:16:49.864Z,93.70
2023-02-28T06:19:23.420Z,93.90
2023-02-28T06:21:57.888Z,93.40
2023-02-28T06:24:29.968Z,92.30
2023-02-28T06:27:05.965Z,92.30
2023-02-28T06:29:40.881Z,92.40
2023-02-28T06:32:12.726Z,93.00
2023-02-28T06:34:44.720Z,93.20
2023-02-28T06:37:16.570Z,93.70
2023-02-28T06:39:48.478Z,93.10
2023-02-28T06:42:21.029Z,91.20
2023-02-28T06:44:52.897Z,91.20
2023-02-28T06:47:25.190Z,91.30
2023-02-28T06:49:57.033Z,91.40
2023-02-28T06:52:28.898Z,90.80
2023-02-28T06:55:01.220Z,90.40
2023-02-28T06:57:34.606Z,88.00
2023-02-28T07:00:09.731Z,88.20
2023-02-28T07:02:41.661Z,88.70
2023-02-28T07:05:13.596Z,88.20
2023-02-28T07:07:47.903Z,89.10
2023-02-28T07:10:20.437Z,86.70
2023-02-28T07:12:52.513Z,87.30
2023-02-28T07:15:24.358Z,87.60
2023-02-28T07:17:57.376Z,86.80
2023-02-28T07:20:29.443Z,86.90
2023-02-28T07:23:01.489Z,87.40
2023-02-28T07:25:33.341Z,87.80
2023-02-28T07:28:05.506Z,88.00
2023-02-28T07:30:37.518Z,88.50
2023-02-28T07:33:11.168Z,88.10
2023-02-28T07:35:43.407Z,88.90
2023-02-28T07:38:16.112Z,88.80
2023-02-28T07:40:47.929Z,88.70
2023-02-28T07:43:19.887Z,87.90
2023-02-28T07:45:51.719Z,87.10
2023-02-28T07:48:23.606Z,86.80
2023-02-28T07:50:56.932Z,86.40
2023-02-28T07:53:29.706Z,86.60
2023-02-28T08:20:11.325Z,83.10
2023-02-28T08:22:45.833Z,83.50
2023-02-28T08:25:18.188Z,83.70
2023-02-28T08:27:53.154Z,84.70
2023-02-28T08:30:25.181Z,85.30
2023-02-28T08:32:57.273Z,85.40
2023-02-28T08:35:29.248Z,85.70
2023-02-28T08:38:01.191Z,84.00
2023-02-28T08:40:33.158Z,84.80
2023-02-28T08:43:05.278Z,84.70
2023-02-28T08:45:37.488Z,84.90
2023-02-28T08:48:09.800Z,83.50
2023-02-28T08:50:41.679Z,84.10
2023-02-28T08:53:13.585Z,81.90
2023-02-28T08:55:46.125Z,81.20
2023-02-28T08:58:18.123Z,80.90
2023-02-28T09:00:50.126Z,80.50
2023-02-28T09:03:24.318Z,80.00
2023-02-28T09:06:01.656Z,79.70
2023-02-28T09:08:33.598Z,79.60
2023-02-28T09:11:05.931Z,79.40
2023-02-28T09:13:38.234Z,78.70
2023-02-28T09:16:13.922Z,77.40
2023-02-28T09:18:45.839Z,77.20
2023-02-28T09:21:19.806Z,75.40
2023-02-28T09:23:52.386Z,74.60
2023-02-28T09:26:30.192Z,74.40
2023-02-28T09:29:07.716Z,73.80
2023-02-28T09:31:39.737Z,74.60
2023-02-28T09:34:11.907Z,74.50
2023-02-28T09:36:46.180Z,74.70
2023-02-28T09:39:18.419Z,77.10
2023-02-28T09:41:54.753Z,76.90
2023-02-28T09:44:42.847Z,77.00
2023-02-28T09:47:25.186Z,77.20
2023-02-28T09:49:59.336Z,77.50
2023-02-28T09:52:33.389Z,76.90
2023-02-28T09:55:35.276Z,77.30
2023-02-28T09:58:24.228Z,76.20
2023-02-28T10:01:15.693Z,74.80
2023-02-28T10:04:04.674Z,74.10
2023-02-28T10:06:46.452Z,74.30
2023-02-28T10:09:25.195Z,72.90
2023-02-28T10:12:03.053Z,72.10
2023-02-28T10:14:36.225Z,71.60
2023-02-28T10:17:21.051Z,71.90
2023-02-28T10:19:52.881Z,72.80
2023-02-28T10:22:54.012Z,74.20
2023-02-28T10:25:29.071Z,73.10
2023-02-28T10:28:08.953Z,71.60
2023-02-28T10:30:46.340Z,72.90
2023-02-28T10:33:35.989Z,72.50
2023-02-28T10:36:14.600Z,74.00
2023-02-28T10:38:47.837Z,73.90
2023-02-28T10:41:35.508Z,73.40
2023-02-28T10:44:23.754Z,73.60
2023-02-28T10:46:56.563Z,74.30
2023-02-28T10:49:30.404Z,74.10
2023-02-28T10:52:02.490Z,74.30
2023-02-28T10:54:39.163Z,76.00
2023-02-28T10:57:29.528Z,76.70
2023-02-28T11:00:22.939Z,76.40
2023-02-28T11:02:55.470Z,76.60
2023-02-28T11:05:29.515Z,76.10
2023-02-28T11:08:07.166Z,77.60
2023-02-28T11:10:39.850Z,76.00
2023-02-28T11:13:20.515Z,77.10
2023-02-28T11:15:58.174Z,76.70
2023-02-28T11:18:52.974Z,77.70
2023-02-28T11:21:29.881Z,76.80
2023-02-28T11:24:24.493Z,76.00
2023-02-28T11:26:57.261Z,75.70
2023-02-28T11:29:35.805Z,75.00
2023-02-28T11:32:23.330Z,74.70
2023-02-28T11:35:40.565Z,75.20
2023-02-28T11:38:14.132Z,76.80
2023-02-28T11:41:00.958Z,75.20
2023-02-28T11:43:46.252Z,75.60
2023-02-28T11:46:39.314Z,75.60
2023-02-28T11:49:36.896Z,74.70
2023-02-28T11:52:39.733Z,76.00
2023-02-28T11:55:20.318Z,76.60
2023-02-28T11:58:27.520Z,77.30
2023-02-28T12:01:05.914Z,78.30
2023-02-28T12:03:43.489Z,76.10
2023-02-28T12:06:49.481Z,76.60
2023-02-28T12:09:59.696Z,76.60
2023-02-28T12:12:50.650Z,77.10
2023-02-28T12:15:41.467Z,77.90
2023-02-28T12:18:13.329Z,77.20
2023-02-28T12:20:55.833Z,77.00
2023-02-28T12:23:36.823Z,76.10
2023-02-28T12:26:29.612Z,76.60
2023-02-28T12:29:11.566Z,75.40
2023-02-28T12:31:50.744Z,76.40
2023-02-28T12:34:50.682Z,75.60
2023-02-28T12:37:28.090Z,76.50
2023-02-28T12:40:10.868Z,77.70
2023-02-28T12:42:58.087Z,77.80
2023-02-28T12:45:45.544Z,77.50
2023-02-28T12:48:26.870Z,78.20
2023-02-28T12:51:03.229Z,77.80
2023-02-28T12:54:07.564Z,77.40
2023-02-28T12:57:01.261Z,77.10
2023-02-28T12:59:40.470Z,77.30
2023-02-28T13:02:51.820Z,78.10
2023-02-28T13:05:54.821Z,77.90
2023-02-28T13:09:02.742Z,78.70
2023-02-28T13:11:42.531Z,78.80
2023-02-28T13:14:56.555Z,79.20
2023-02-28T13:17:35.064Z,78.30
2023-02-28T13:20:24.550Z,78.40
2023-02-28T13:22:58.416Z,78.40
2023-02-28T13:25:42.390Z,78.30
2023-02-28T13:28:52.028Z,77.70
2023-02-28T13:31:25.672Z,78.30
2023-02-28T13:34:00.563Z,78.20
2023-02-28T13:36:34.258Z,78.70
2023-02-28T13:39:37.815Z,79.40
2023-02-28T13:42:37.073Z,79.00
2023-02-28T13:45:08.988Z,78.10
2023-02-28T13:47:52.961Z,78.20
2023-02-28T13:50:27.812Z,78.80
2023-02-28T13:53:15.440Z,78.90
2023-02-28T13:56:15.922Z,80.20
2023-02-28T13:59:16.119Z,79.20
2023-02-28T14:02:14.326Z,78.30
2023-02-28T14:05:02.980Z,78.40
2023-02-28T14:07:54.723Z,79.40
2023-02-28T14:10:33.813Z,79.50
2023-02-28T14:13:51.181Z,78.30
2023-02-28T14:16:27.790Z,78.20
2023-02-28T14:19:28.302Z,78.00
2023-02-28T14:22:28.915Z,78.40
2023-02-28T14:25:26.387Z,78.40
2023-02-28T14:28:34.151Z,78.60
2023-02-28T14:31:14.720Z,78.60
2023-02-28T14:33:52.667Z,78.70
2023-02-28T14:36:40.470Z,79.10
2023-02-28T14:39:22.915Z,78.70
2023-02-28T14:41:56.022Z,78.20
2023-02-28T14:44:33.259Z,78.90
2023-02-28T14:47:07.442Z,78.10
2023-02-28T14:49:46.618Z,79.50
2023-02-28T14:52:23.044Z,79.30
2023-02-28T14:54:58.326Z,79.60
2023-02-28T14:57:33.188Z,80.60
2023-02-28T15:00:30.009Z,79.70
2023-02-28T15:03:13.171Z,79.80
2023-02-28T15:05:56.776Z,80.50
2023-02-28T15:08:32.784Z,81.00
2023-02-28T15:11:13.800Z,80.60
2023-02-28T15:13:51.871Z,80.70
2023-02-28T15:16:38.409Z,79.90
2023-02-28T15:19:25.252Z,80.50
2023-02-28T15:22:08.085Z,80.90
2023-02-28T15:24:53.119Z,81.60
2023-02-28T15:27:33.138Z,82.00
2023-02-28T15:30:16.015Z,81.00
2023-02-28T15:33:09.582Z,81.40
2023-02-28T15:35:41.553Z,81.40
2023-02-28T15:41:30.611Z,82.30
2023-02-28T15:44:17.169Z,82.50
2023-02-28T15:47:00.241Z,82.60
2023-02-28T15:49:50.282Z,82.70
2023-02-28T15:52:37.730Z,83.60
2023-02-28T15:55:19.407Z,83.30
2023-02-28T15:57:54.888Z,84.30
2023-02-28T16:00:28.900Z,84.00
2023-02-28T16:03:00.998Z,83.70
2023-02-28T16:05:33.268Z,84.20
2023-02-28T16:08:16.065Z,85.90
2023-02-28T16:10:48.027Z,86.20
2023-02-28T16:13:19.846Z,86.70
2023-02-28T16:15:52.435Z,86.80
2023-02-28T16:18:24.346Z,87.30
2023-02-28T16:20:56.546Z,87.60
2023-02-28T16:23:28.557Z,87.90
2023-02-28T16:26:00.677Z,87.80
2023-02-28T16:28:35.833Z,87.40
2023-02-28T16:31:08.658Z,87.50
2023-02-28T16:33:40.625Z,88.10
2023-02-28T16:36:21.991Z,88.50
2023-02-28T16:38:55.425Z,88.90
2023-02-28T16:41:28.883Z,89.00
2023-02-28T16:44:01.521Z,88.90
2023-02-28T16:46:35.874Z,89.20
2023-02-28T16:49:12.840Z,89.20
2023-02-28T16:51:44.690Z,89.30
2023-02-28T16:54:16.602Z,89.20
2023-02-28T16:56:49.824Z,88.60
2023-02-28T16:59:27.052Z,89.30
2023-02-28T17:01:59.717Z,89.50
2023-02-28T17:04:31.770Z,89.50
2023-02-28T17:07:03.846Z,90.00
2023-02-28T17:09:43.085Z,90.10
2023-02-28T17:12:15.905Z,90.30
2023-02-28T17:14:47.795Z,90.40
2023-02-28T17:17:22.935Z,90.70
2023-02-28T17:19:54.830Z,90.70
2023-02-28T17:22:26.997Z,90.80
2023-02-28T17:24:59.720Z,90.90
2023-02-28T17:27:31.613Z,90.90
2023-02-28T17:30:12.575Z,90.80
2023-02-28T17:32:44.874Z,90.80
2023-02-28T17:35:16.979Z,91.70
2023-02-28T17:37:49.037Z,92.10
2023-02-28T17:40:23.615Z,92.40
2023-02-28T17:42:57.723Z,92.50
2023-02-28T17:45:29.702Z,92.50
2023-02-28T17:48:02.182Z,92.70
2023-02-28T17:50:34.345Z,93.10
2023-02-28T17:53:06.358Z,93.30
2023-02-28T17:55:38.309Z,93.50
2023-02-28T17:58:15.061Z,93.90
2023-02-28T18:00:48.742Z,94.10
2023-02-28T18:03:21.497Z,94.10
2023-02-28T18:05:53.454Z,94.00
2023-02-28T18:08:25.555Z,94.30
2023-02-28T18:10:57.450Z,94.40
2023-02-28T18:13:32.583Z,94.20
2023-02-28T18:16:05.117Z,94.30
2023-02-28T18:18:38.527Z,94.50
2023-02-28T18:21:12.189Z,94.30
2023-02-28T18:23:50.987Z,94.50
2023-02-28T18:26:24.195Z,94.50
2023-02-28T18:28:57.595Z,95.10
2023-02-28T18:31:30.502Z,95.50
2023-02-28T18:34:02.468Z,95.50
2023-02-28T18:36:34.354Z,95.60
2023-02-28T18:39:06.220Z,95.30
2023-02-28T18:41:38.824Z,95.30
2023-02-28T18:44:20.997Z,95.50
2023-02-28T18:46:54.575Z,95.90
2023-02-28T18:49:26.519Z,98.70
2023-02-28T18:51:58.653Z,99.90
2023-02-28T18:54:30.641Z,97.60
2023-02-28T18:57:02.446Z,96.90
2023-02-28T18:59:34.361Z,97.00
2023-02-28T19:02:06.740Z,97.20
2023-02-28T19:04:41.832Z,97.40
2023-02-28T19:07:15.279Z,97.60
2023-02-28T19:09:48.458Z,97.70
2023-02-28T19:12:20.689Z,97.90
2023-02-28T19:14:52.629Z,98.30
2023-02-28T19:17:24.434Z,98.40
2023-02-28T19:19:56.304Z,98.60
2023-02-28T19:22:28.185Z,99.20
2023-02-28T19:25:00.109Z,99.30
2023-02-28T19:27:32.090Z,99.60
2023-02-28T19:30:06.427Z,99.60
2023-02-28T19:32:38.418Z,99.20
2023-02-28T19:35:10.318Z,99.30
2023-02-28T19:37:42.591Z,99.40
2023-02-28T19:40:17.342Z,99.70
2023-02-28T19:42:50.345Z,99.50
2023-02-28T19:45:24.418Z,99.40
2023-02-28T19:47:56.762Z,99.40
2023-02-28T19:50:28.783Z,99.50
2023-02-28T19:53:02.524Z,99.40
2023-02-28T19:55:34.562Z,99.70
2023-02-28T19:58:09.084Z,99.90
2023-02-28T20:00:41.562Z,99.90
2023-02-28T20:03:13.595Z,99.90
2023-02-28T20:05:46.567Z,99.90
2023-02-28T20:08:18.913Z,99.90
2023-02-28T20:10:50.881Z,99.90
2023-02-28T20:13:27.986Z,99.90
2023-02-28T20:16:06.259Z,99.90
2023-02-28T20:18:40.155Z,99.90
2023-02-28T20:21:17.843Z,99.90
2023-02-28T20:23:49.873Z,99.90
2023-02-28T20:26:25.058Z,99.90
2023-02-28T20:28:57.441Z,99.90
2023-02-28T20:31:31.028Z,99.90
2023-02-28T20:34:03.694Z,99.90
2023-02-28T20:36:35.819Z,99.90
2023-02-28T20:39:08.302Z,99.90
2023-02-28T20:41:41.170Z,99.90
2023-02-28T20:44:14.438Z,99.90
2023-02-28T20:46:46.850Z,99.90
2023-02-28T20:49:19.143Z,99.90
2023-02-28T20:51:51.401Z,99.90
2023-02-28T20:54:25.081Z,99.90
2023-02-28T20:56:57.646Z,99.90
2023-02-28T20:59:29.669Z,99.90
2023-02-28T21:02:01.806Z,99.90
2023-02-28T21:04:34.111Z,99.90
2023-02-28T21:07:06.094Z,99.90
2023-02-28T21:09:39.334Z,99.90
2023-02-28T21:12:11.301Z,99.90
2023-02-28T21:14:44.830Z,99.90
2023-02-28T21:17:16.870Z,99.90
2023-02-28T21:19:49.486Z,99.90
2023-02-28T21:22:21.856Z,99.90
2023-02-28T21:24:53.803Z,99.90
2023-02-28T21:27:26.867Z,99.90
2023-02-28T21:29:59.018Z,99.90
2023-02-28T21:32:31.006Z,99.90
2023-02-28T21:35:04.070Z,99.90
2023-02-28T21:37:38.687Z,99.90
2023-02-28T21:40:11.394Z,99.90
2023-02-28T21:42:43.297Z,99.90
2023-02-28T21:45:15.690Z,99.90
2023-02-28T21:47:47.656Z,99.90
2023-02-28T21:50:19.619Z,99.90
2023-02-28T21:52:51.755Z,99.90
2023-02-28T21:55:23.638Z,99.90
2023-02-28T21:57:55.593Z,99.90
2023-02-28T22:00:27.877Z,99.90
2023-02-28T22:02:59.956Z,99.90
2023-02-28T22:05:32.910Z,99.90
2023-02-28T22:08:04.792Z,99.90
2023-02-28T22:10:36.833Z,99.90
2023-02-28T22:13:10.103Z,99.90
2023-02-28T22:15:43.417Z,99.90
2023-02-28T22:18:15.725Z,99.90
2023-02-28T22:20:55.282Z,99.90
2023-02-28T22:23:29.332Z,99.90
2023-02-28T22:26:03.135Z,99.90
2023-02-28T22:28:36.505Z,99.90
2023-02-28T22:31:14.855Z,99.90
2023-02-28T22:33:48.767Z,99.90
2023-02-28T22:36:23.179Z,99.90
2023-02-28T22:38:55.666Z,99.90
2023-02-28T22:41:28.683Z,99.90
2023-02-28T22:44:02.863Z,99.90
2023-02-28T22:46:36.056Z,99.90
2023-02-28T22:49:09.010Z,99.90
2023-02-28T22:51:41.510Z,99.90
2023-02-28T22:54:13.704Z,99.90
2023-02-28T22:56:45.874Z,99.90
2023-02-28T22:59:18.634Z,99.90
2023-02-28T23:01:53.757Z,99.90
2023-02-28T23:04:27.145Z,99.90
2023-02-28T23:06:59.447Z,99.90
2023-02-28T23:09:31.597Z,99.90
2023-02-28T23:12:03.726Z,99.90
2023-02-28T23:14:35.650Z,99.90
2023-02-28T23:17:07.716Z,99.90
2023-02-28T23:19:39.715Z,99.90
2023-02-28T23:22:11.608Z,99.90
2023-02-28T23:24:43.633Z,99.90
2023-02-28T23:27:15.729Z,99.90
2023-02-28T23:29:47.824Z,99.90
2023-02-28T23:32:19.760Z,99.90
2023-02-28T23:34:51.747Z,99.90
2023-02-28T23:37:23.740Z,99.90
2023-02-28T23:39:56.023Z,99.90
2023-02-28T23:42:29.590Z,99.90
2023-02-28T23:45:01.510Z,99.90
2023-02-28T23:47:33.465Z,99.90
2023-02-28T23:50:05.729Z,99.90
2023-02-28T23:52:37.675Z,99.90
2023-02-28T23:55:10.094Z,99.90
2023-02-28T23:57:42.128Z,99.90
